createdAt,value
2022-08-28T00:06:07.884Z,26.28
2022-08-28T00:12:58.229Z,26.25
2022-08-28T00:19:43.747Z,26.26
2022-08-28T00:26:41.896Z,26.25
2022-08-28T00:33:35.273Z,26.12
2022-08-28T00:40:28.480Z,26.13
2022-08-28T00:47:16.720Z,26.08
2022-08-28T00:54:07.693Z,25.98
2022-08-28T01:00:53.731Z,25.90
2022-08-28T01:07:40.267Z,25.95
2022-08-28T01:14:29.811Z,25.93
2022-08-28T01:21:24.983Z,25.86
2022-08-28T01:28:16.788Z,25.86
2022-08-28T01:35:03.145Z,25.69
2022-08-28T01:41:54.663Z,25.88
2022-08-28T01:48:46.088Z,25.94
2022-08-28T01:55:32.449Z,25.96
2022-08-28T02:02:17.985Z,25.92
2022-08-28T02:09:06.718Z,25.52
2022-08-28T02:15:59.184Z,25.73
2022-08-28T02:22:45.212Z,25.76
2022-08-28T02:29:33.279Z,25.89
2022-08-28T02:36:19.572Z,25.99
2022-08-28T02:43:06.069Z,26.08
2022-08-28T03:03:43.517Z,26.14
2022-08-28T03:10:29.021Z,26.14
2022-08-28T03:17:14.494Z,26.15
2022-08-28T03:24:02.668Z,25.81
2022-08-28T03:30:49.809Z,25.93
2022-08-28T03:37:35.774Z,25.82
2022-08-28T03:44:23.945Z,25.74
2022-08-28T03:51:12.227Z,25.66
2022-08-28T03:57:58.056Z,25.58
2022-08-28T04:04:46.187Z,25.43
2022-08-28T04:11:32.341Z,25.18
2022-08-28T04:18:18.402Z,25.44
2022-08-28T04:25:07.383Z,25.41
2022-08-28T04:31:53.326Z,25.37
2022-08-28T04:38:43.731Z,25.29
2022-08-28T04:45:32.295Z,25.20
2022-08-28T04:52:17.819Z,25.14
2022-08-28T04:59:04.775Z,25.10
2022-08-28T05:05:55.831Z,25.04
2022-08-28T05:12:41.292Z,25.07
2022-08-28T05:19:28.614Z,25.12
2022-08-28T05:26:19.901Z,24.85
2022-08-28T05:33:05.682Z,25.07
2022-08-28T05:39:51.141Z,25.01
2022-08-28T05:46:42.143Z,24.91
2022-08-28T05:53:28.361Z,24.95
2022-08-28T06:00:15.454Z,25.00
2022-08-28T06:07:04.256Z,25.11
2022-08-28T06:13:49.864Z,25.17
2022-08-28T06:20:41.464Z,25.18
2022-08-28T06:27:31.202Z,25.10
2022-08-28T06:34:16.779Z,25.13
2022-08-28T06:41:02.685Z,25.06
2022-08-28T06:47:50.987Z,25.28
2022-08-28T06:54:39.000Z,25.26
2022-08-28T07:01:29.951Z,25.21
2022-08-28T07:08:18.159Z,25.24
2022-08-28T07:15:04.301Z,25.26
2022-08-28T07:21:49.899Z,25.37
2022-08-28T07:28:38.899Z,25.41
2022-08-28T07:35:25.460Z,25.48
2022-08-28T07:42:35.448Z,25.62
2022-08-28T07:49:24.493Z,25.70
2022-08-28T07:56:11.407Z,25.94
2022-08-28T08:02:57.329Z,25.99
2022-08-28T08:09:46.820Z,26.09
2022-08-28T08:16:33.532Z,26.25
2022-08-28T08:23:18.962Z,26.46
2022-08-28T08:30:08.213Z,26.56
2022-08-28T08:36:54.263Z,26.82
2022-08-28T08:43:58.845Z,26.87
2022-08-28T08:50:46.941Z,26.97
2022-08-28T08:57:34.392Z,27.03
2022-08-28T09:04:39.852Z,27.07
2022-08-28T09:11:44.229Z,27.17
2022-08-28T09:18:35.848Z,26.93
2022-08-28T09:25:59.719Z,27.51
2022-08-28T09:33:02.774Z,27.70
2022-08-28T09:39:49.004Z,27.67
2022-08-28T09:46:39.167Z,28.02
2022-08-28T09:53:29.195Z,28.12
2022-08-28T10:00:16.228Z,28.31
2022-08-28T10:07:09.428Z,28.49
2022-08-28T10:14:13.172Z,28.77
2022-08-28T10:21:07.965Z,28.96
2022-08-28T10:28:25.460Z,28.91
2022-08-28T10:35:21.329Z,28.93
2022-08-28T10:42:10.437Z,29.21
2022-08-28T10:49:03.149Z,28.75
2022-08-28T10:56:02.743Z,29.47
2022-08-28T11:02:54.071Z,29.71
2022-08-28T11:09:41.923Z,29.60
2022-08-28T11:16:42.034Z,29.48
2022-08-28T11:23:45.927Z,30.18
2022-08-28T11:30:36.695Z,30.21
2022-08-28T11:37:44.452Z,29.96
2022-08-28T11:44:43.257Z,29.74
2022-08-28T11:52:03.144Z,30.32
2022-08-28T11:59:02.302Z,30.36
2022-08-28T12:05:58.582Z,30.48
2022-08-28T12:12:57.083Z,30.58
2022-08-28T12:19:55.215Z,30.61
2022-08-28T12:26:48.726Z,30.68
2022-08-28T12:33:41.561Z,30.73
2022-08-28T12:40:35.074Z,30.78
2022-08-28T12:47:25.773Z,30.84
2022-08-28T12:54:12.273Z,30.88
2022-08-28T13:01:04.041Z,31.08
2022-08-28T13:07:54.492Z,31.18
2022-08-28T13:14:46.312Z,31.27
2022-08-28T13:21:38.581Z,31.33
2022-08-28T13:28:24.645Z,31.44
2022-08-28T13:35:38.805Z,31.53
2022-08-28T13:42:26.865Z,31.70
2022-08-28T13:49:12.352Z,31.85
2022-08-28T13:56:00.126Z,31.98
2022-08-28T14:03:02.036Z,31.90
2022-08-28T14:09:47.560Z,31.78
2022-08-28T14:16:35.457Z,31.96
2022-08-28T14:23:27.292Z,32.05
2022-08-28T14:30:14.404Z,32.02
2022-08-28T14:37:02.060Z,32.11
2022-08-28T14:43:50.833Z,32.11
2022-08-28T14:50:36.361Z,32.18
2022-08-28T14:57:22.248Z,32.25
2022-08-28T15:04:14.047Z,32.30
2022-08-28T15:10:59.715Z,32.05
2022-08-28T15:17:45.213Z,32.36
2022-08-28T15:24:36.072Z,32.32
2022-08-28T15:31:22.595Z,32.37
2022-08-28T15:38:09.869Z,32.42
2022-08-28T15:44:57.956Z,32.45
2022-08-28T15:51:44.272Z,32.40
2022-08-28T15:58:31.385Z,32.40
2022-08-28T16:05:19.998Z,32.43
2022-08-28T16:12:08.007Z,32.36
2022-08-28T16:18:53.506Z,32.36
2022-08-28T16:25:42.175Z,32.22
2022-08-28T16:32:27.746Z,32.09
2022-08-28T16:39:13.276Z,32.07
2022-08-28T16:46:02.080Z,32.02
2022-08-28T16:52:47.668Z,32.04
2022-08-28T16:59:33.386Z,32.06
2022-08-28T17:06:28.890Z,31.56
2022-08-28T17:13:14.720Z,32.07
2022-08-28T17:20:00.540Z,31.81
2022-08-28T17:26:51.091Z,32.00
2022-08-28T17:33:36.636Z,32.00
2022-08-28T17:40:22.759Z,31.89
2022-08-28T17:47:11.984Z,31.84
2022-08-28T17:53:58.102Z,31.75
2022-08-28T18:00:44.473Z,31.67
2022-08-28T18:07:32.490Z,31.61
2022-08-28T18:14:18.270Z,31.60
2022-08-28T18:21:04.771Z,31.58
2022-08-28T18:27:53.377Z,31.55
2022-08-28T18:34:39.167Z,31.55
2022-08-28T18:41:32.636Z,31.07
2022-08-28T18:48:33.619Z,31.30
2022-08-28T18:55:19.146Z,31.46
2022-08-28T19:02:05.459Z,31.41
2022-08-28T19:08:53.746Z,31.42
2022-08-28T19:15:40.298Z,31.36
2022-08-28T19:22:26.656Z,30.87
2022-08-28T19:29:19.107Z,31.05
2022-08-28T19:36:05.287Z,30.86
2022-08-28T19:42:51.373Z,30.77
2022-08-28T19:49:39.400Z,30.24
2022-08-28T19:56:27.082Z,30.40
2022-08-28T20:03:13.536Z,30.20
2022-08-28T20:10:02.409Z,30.06
2022-08-28T20:16:51.300Z,29.83
2022-08-28T20:23:36.981Z,29.63
2022-08-28T20:30:25.496Z,29.26
2022-08-28T20:37:11.514Z,29.29
2022-08-28T20:43:57.164Z,29.13
2022-08-28T20:50:45.328Z,28.96
2022-08-28T20:57:30.823Z,28.87
2022-08-28T21:04:16.408Z,28.68
2022-08-28T21:11:05.562Z,28.51
2022-08-28T21:17:51.055Z,28.32
2022-08-28T21:24:36.636Z,28.17
2022-08-28T21:31:24.589Z,28.23
2022-08-28T21:38:10.448Z,27.90
2022-08-28T21:44:59.621Z,27.35
2022-08-28T21:51:47.829Z,27.33
2022-08-28T21:58:33.757Z,27.57
2022-08-28T22:05:21.410Z,27.47
2022-08-28T22:12:10.885Z,27.32
2022-08-28T22:18:56.878Z,27.17
2022-08-28T22:25:44.847Z,26.39
2022-08-28T22:32:33.427Z,26.57
2022-08-28T22:39:18.952Z,26.27
2022-08-28T22:46:04.788Z,26.45
2022-08-28T22:52:53.488Z,26.41
2022-08-28T22:59:39.066Z,25.85
2022-08-28T23:06:24.580Z,25.97
2022-08-28T23:13:14.318Z,25.83
2022-08-28T23:20:00.452Z,25.71
2022-08-28T23:26:48.940Z,25.61
2022-08-28T23:33:37.096Z,25.59
2022-08-28T23:40:25.846Z,25.66
2022-08-28T23:47:14.181Z,25.56
2022-08-28T23:54:02.428Z,25.47
